Time;durP1;ratioP1;P1;durP2;ratioP2;P2;SDS_P1;SDS_P2;PMS_P1;PMS_P2;Temp;Humidity;BMP_temperature;BMP_pressure;BME280_temperature;BME280_humidity;BME280_pressure;Samples;Min_cycle;Max_cycle;Signal;HPM_P1;HPM_P2
2023/09/29 00:02:10;;;;;;;;;;;;;;;23.41;36.50;99050.41;5030904;28;20020;-78
2023/09/29 00:04:35;;;;;;;;;;;;;;;23.40;36.53;99049.56;5031204;28;19929;-78
2023/09/29 00:07:01;;;;;;;;;;;;;;;23.38;36.47;99043.63;5031225;28;19976;-78
2023/09/29 00:09:27;;;;;;;;;;;;;;;23.34;36.39;99038.88;5031361;28;19964;-79
2023/09/29 00:11:53;;;;;;;;;;;;;;;23.30;36.71;99041.91;5031351;28;19925;-79
2023/09/29 00:14:19;;;;;;;;;;;;;;;23.29;36.41;99034.97;5032611;28;20438;-78
2023/09/29 00:16:45;;;;;;;;;;;;;;;23.27;35.94;99033.50;5031264;28;20008;-78
2023/09/29 00:19:10;;;;;;;;;;;;;;;23.24;35.85;99033.88;5031949;28;20008;-78
2023/09/29 00:21:35;;;;;;;;;;;;;;;23.20;35.65;99041.44;5031839;28;19929;-78
2023/09/29 00:24:00;;;;;;;;;;;;;;;23.19;35.98;99034.44;5031458;28;20436;-79
2023/09/29 00:26:26;;;;;;;;;;;;;;;23.18;35.81;99035.44;5030917;28;19928;-78
2023/09/29 00:28:51;;;;;;;;;;;;;;;23.16;36.07;99042.00;5031165;28;20384;-78
2023/09/29 00:31:17;;;;;;;;;;;;;;;23.13;35.78;99037.88;5031182;28;20304;-79
2023/09/29 00:33:42;;;;;;;;;;;;;;;23.10;35.72;99032.94;5032692;28;19917;-78
2023/09/29 00:36:09;;;;;;;;;;;;;;;23.06;35.79;99037.78;5030892;28;19924;-77
2023/09/29 00:38:34;;;;;;;;;;;;;;;23.04;35.61;99042.47;5031060;28;19917;-78
2023/09/29 00:41:00;;;;;;;;;;;;;;;23.02;35.80;99041.00;5032105;28;19939;-78
2023/09/29 00:43:27;;;;;;;;;;;;;;;23.00;35.80;99035.06;5030813;28;19928;-78
2023/09/29 00:45:52;;;;;;;;;;;;;;;22.97;35.65;99033.59;5031212;28;19917;-78
2023/09/29 00:48:18;;;;;;;;;;;;;;;22.95;35.86;99027.66;5031016;28;19924;-79
2023/09/29 00:50:45;;;;;;;;;;;;;;;22.92;35.84;99028.03;5030928;28;20377;-79
2023/09/29 00:53:13;;;;;;;;;;;;;;;22.88;36.15;99027.59;5031855;28;19975;-79
2023/09/29 00:55:41;;;;;;;;;;;;;;;22.88;35.95;99034.72;5014836;28;19968;-79
2023/09/29 00:58:07;;;;;;;;;;;;;;;22.86;36.14;99029.59;5030952;28;19979;-78
2023/09/29 01:00:32;;;;;;;;;;;;;;;22.86;36.09;99028.78;5030581;28;20363;-79
2023/09/29 01:03:16;;;;;;;;;;;;;;;22.86;36.05;99029.59;5034250;28;20012;-78
2023/09/29 01:05:43;;;;;;;;;;;;;;;22.87;35.98;99031.25;5034458;28;19932;-78
2023/09/29 01:08:09;;;;;;;;;;;;;;;22.88;35.95;99032.06;5017859;28;19917;-78
2023/09/29 01:10:38;;;;;;;;;;;;;;;22.89;36.26;99029.22;5034424;28;19917;-77
2023/09/29 01:13:03;;;;;;;;;;;;;;;22.86;36.04;99026.94;5034358;28;19964;-78
2023/09/29 01:15:28;;;;;;;;;;;;;;;22.87;36.00;99025.13;5035338;28;19968;-79
2023/09/29 01:17:54;;;;;;;;;;;;;;;22.86;36.14;99023.47;5035346;28;20400;-78
2023/09/29 01:20:28;;;;;;;;;;;;;;;22.84;36.35;99018.31;5035276;28;19924;-78
2023/09/29 01:22:54;;;;;;;;;;;;;;;22.85;36.33;99022.66;5034153;28;19917;-78
2023/09/29 01:25:20;;;;;;;;;;;;;;;22.87;36.09;99025.13;5033390;28;19925;-77
2023/09/29 01:27:46;;;;;;;;;;;;;;;22.87;36.08;99023.28;5034897;28;20008;-78
2023/09/29 01:30:13;;;;;;;;;;;;;;;22.89;36.43;99025.75;5017671;28;20345;-78
2023/09/29 01:32:40;;;;;;;;;;;;;;;22.89;36.31;99025.75;5035604;28;19917;-78
2023/09/29 01:35:06;;;;;;;;;;;;;;;22.88;35.94;99022.25;5017627;28;19917;-78
2023/09/29 01:37:33;;;;;;;;;;;;;;;22.90;36.15;99027.41;5035136;28;19917;-78
2023/09/29 01:39:58;;;;;;;;;;;;;;;22.91;35.94;99024.56;5035154;28;19924;-78
2023/09/29 01:42:24;;;;;;;;;;;;;;;22.92;35.43;99028.84;5033164;28;19925;-78
2023/09/29 01:44:49;;;;;;;;;;;;;;;22.92;35.47;99026.19;5034949;28;19967;-78
2023/09/29 01:47:14;;;;;;;;;;;;;;;22.94;35.59;99018.00;5034908;28;19924;-79
2023/09/29 01:49:40;;;;;;;;;;;;;;;22.93;35.19;99017.19;5033869;28;19995;-79
2023/09/29 01:52:07;;;;;;;;;;;;;;;22.92;35.23;99010.22;5017386;28;19917;-78
2023/09/29 01:54:33;;;;;;;;;;;;;;;22.91;35.14;99011.25;5034924;28;19924;-79
2023/09/29 01:57:01;;;;;;;;;;;;;;;22.91;34.98;99008.59;5035378;28;19917;-78
2023/09/29 01:59:27;;;;;;;;;;;;;;;22.90;35.02;99014.91;5033904;28;19921;-78
2023/09/29 02:01:53;;;;;;;;;;;;;;;22.88;35.08;99002.78;5034708;28;20389;-78
2023/09/29 02:04:18;;;;;;;;;;;;;;;22.86;35.12;99004.81;5033422;28;19936;-78
2023/09/29 02:06:43;;;;;;;;;;;;;;;22.82;35.37;99006.22;5017078;28;19917;-79
2023/09/29 02:09:10;;;;;;;;;;;;;;;22.80;35.43;98998.41;5033956;28;20004;-79
2023/09/29 02:11:36;;;;;;;;;;;;;;;22.77;35.26;98991.66;5017708;28;19971;-78
2023/09/29 02:14:04;;;;;;;;;;;;;;;22.76;35.62;98989.19;5032506;28;19953;-78
2023/09/29 02:16:30;;;;;;;;;;;;;;;22.74;35.19;98989.38;5033371;28;20353;-78
2023/09/29 02:18:56;;;;;;;;;;;;;;;22.72;35.29;98990.56;5034581;28;19917;-78
2023/09/29 02:21:22;;;;;;;;;;;;;;;22.71;34.87;98980.94;5034594;28;19939;-78
2023/09/29 02:23:48;;;;;;;;;;;;;;;22.68;35.01;98989.31;5032978;28;19921;-78
2023/09/29 02:26:14;;;;;;;;;;;;;;;22.67;34.62;98988.47;5033968;28;19924;-78
2023/09/29 02:28:39;;;;;;;;;;;;;;;22.65;35.16;98984.38;5033739;28;19917;-78
2023/09/29 02:31:10;;;;;;;;;;;;;;;22.64;34.94;98988.03;5033211;28;19917;-78
2023/09/29 02:33:36;;;;;;;;;;;;;;;22.61;35.13;98988.41;5032924;28;19922;-78
2023/09/29 02:36:01;;;;;;;;;;;;;;;22.60;35.53;98998.22;5033538;28;20305;-77
2023/09/29 02:38:26;;;;;;;;;;;;;;;22.59;35.29;98985.94;5034168;28;19960;-78
2023/09/29 02:40:52;;;;;;;;;;;;;;;22.58;35.56;98992.25;5033872;28;19917;-79
2023/09/29 02:43:17;;;;;;;;;;;;;;;22.54;35.81;98991.81;5033461;28;20015;-78
2023/09/29 02:45:42;;;;;;;;;;;;;;;22.53;35.35;98990.19;5032376;28;19917;-79
2023/09/29 02:48:09;;;;;;;;;;;;;;;22.51;35.84;98991.38;5032854;28;19917;-78
2023/09/29 02:50:36;;;;;;;;;;;;;;;22.53;35.82;98992.84;5032430;28;19964;-78
2023/09/29 02:53:04;;;;;;;;;;;;;;;22.52;35.73;98991.19;5033398;28;19917;-79
2023/09/29 02:55:29;;;;;;;;;;;;;;;22.51;35.90;98984.22;5032953;28;19917;-78
2023/09/29 02:57:54;;;;;;;;;;;;;;;22.51;35.99;98984.22;5033906;28;19923;-78
2023/09/29 03:00:21;;;;;;;;;;;;;;;22.50;35.88;98984.41;5032685;28;19940;-78
2023/09/29 03:02:47;;;;;;;;;;;;;;;22.51;36.21;98988.72;5032566;28;20012;-78
2023/09/29 03:05:14;;;;;;;;;;;;;;;22.52;36.12;98980.53;5032191;28;19975;-79
2023/09/29 03:07:41;;;;;;;;;;;;;;;22.51;36.08;98975.41;5004942;28;19979;-78
2023/09/29 03:10:06;;;;;;;;;;;;;;;22.50;35.90;98979.91;5029185;28;19917;-77
2023/09/29 03:12:31;;;;;;;;;;;;;;;22.50;36.27;98974.59;5012472;28;19924;-78
2023/09/29 03:14:57;;;;;;;;;;;;;;;22.48;36.02;98973.13;4996480;28;19917;-78
2023/09/29 03:17:22;;;;;;;;;;;;;;;22.48;35.78;98962.50;5012618;28;19917;-80
2023/09/29 03:19:48;;;;;;;;;;;;;;;22.47;35.45;98969.66;5012287;28;19975;-78
2023/09/29 03:22:13;;;;;;;;;;;;;;;22.48;35.27;98965.16;5012521;28;20312;-79
2023/09/29 03:24:39;;;;;;;;;;;;;;;22.49;35.58;98956.97;4995433;28;19924;-80
2023/09/29 03:27:04;;;;;;;;;;;;;;;22.52;35.96;98961.13;5013777;28;19917;-80
2023/09/29 03:29:30;;;;;;;;;;;;;;;22.54;35.70;98956.41;5013735;28;20000;-81
2023/09/29 03:31:55;;;;;;;;;;;;;;;22.57;34.74;98954.19;5012287;28;19917;-80
2023/09/29 03:34:20;;;;;;;;;;;;;;;22.62;35.24;98945.66;4995750;28;19918;-73
2023/09/29 03:36:46;;;;;;;;;;;;;;;22.71;37.33;98951.69;5011740;28;20402;-70
2023/09/29 03:39:11;;;;;;;;;;;;;;;22.99;37.95;98948.22;5013014;28;19960;-75
2023/09/29 03:41:38;;;;;;;;;;;;;;;23.24;37.89;98960.13;5011882;28;19933;-74
2023/09/29 03:44:03;;;;;;;;;;;;;;;23.43;37.03;98955.13;5012917;28;19976;-74
2023/09/29 03:46:29;;;;;;;;;;;;;;;23.60;36.76;98959.13;5011670;28;19921;-72
2023/09/29 03:48:54;;;;;;;;;;;;;;;23.75;36.30;98959.03;5012523;28;19921;-73
2023/09/29 03:51:30;;;;;;;;;;;;;;;23.85;36.09;98964.03;5012379;28;19931;-73
2023/09/29 03:53:55;;;;;;;;;;;;;;;23.92;35.48;98959.53;5011228;28;19917;-71
2023/09/29 03:56:24;;;;;;;;;;;;;;;24.00;35.86;98966.53;5011792;28;19925;-72
2023/09/29 03:58:49;;;;;;;;;;;;;;;24.02;35.10;98961.81;5010655;28;20003;-73
2023/09/29 04:01:15;;;;;;;;;;;;;;;23.91;34.72;98967.72;5012250;28;20012;-73
2023/09/29 04:03:40;;;;;;;;;;;;;;;23.77;33.52;98964.16;5011361;28;19925;-73
2023/09/29 04:06:06;;;;;;;;;;;;;;;23.65;33.36;98967.34;5012226;28;20332;-76
2023/09/29 04:08:31;;;;;;;;;;;;;;;23.58;33.55;98963.03;4994797;28;19944;-76
2023/09/29 04:10:57;;;;;;;;;;;;;;;23.52;33.56;98967.28;5011700;28;19982;-78
2023/09/29 04:13:22;;;;;;;;;;;;;;;23.45;33.44;98967.25;4993738;28;20004;-79
2023/09/29 04:15:47;;;;;;;;;;;;;;;23.40;33.46;98955.53;4992339;28;20003;-78
2023/09/29 04:18:12;;;;;;;;;;;;;;;23.38;33.22;98966.38;5010089;28;19953;-89
2023/09/29 04:20:38;;;;;;;;;;;;;;;23.35;33.11;98971.28;5009625;28;20028;-79
2023/09/29 04:23:06;;;;;;;;;;;;;;;23.40;33.28;98982.97;5010832;28;20400;-78
2023/09/29 04:25:31;;;;;;;;;;;;;;;23.41;33.14;98989.97;5011531;28;19968;-78
2023/09/29 04:27:57;;;;;;;;;;;;;;;23.49;32.95;98989.00;5012921;28;19922;-78
2023/09/29 04:30:22;;;;;;;;;;;;;;;23.50;32.96;98987.97;5010850;28;19918;-79
2023/09/29 04:32:48;;;;;;;;;;;;;;;23.54;33.09;99001.72;5010883;28;20380;-79
2023/09/29 04:35:13;;;;;;;;;;;;;;;23.56;32.68;99005.00;4994556;28;20030;-77
2023/09/29 04:37:38;;;;;;;;;;;;;;;23.61;32.69;98995.44;5013464;28;20273;-79
2023/09/29 04:40:04;;;;;;;;;;;;;;;23.68;32.55;98995.47;5015557;28;19918;-78
2023/09/29 04:42:29;;;;;;;;;;;;;;;23.87;32.46;98995.81;5014633;28;19922;-78
2023/09/29 04:44:54;;;;;;;;;;;;;;;24.27;31.81;98988.00;5015425;28;19986;-78
2023/09/29 04:47:20;;;;;;;;;;;;;;;24.41;31.40;98992.34;5014820;28;20079;-79
2023/09/29 04:49:45;;;;;;;;;;;;;;;24.55;31.11;98987.88;5016543;28;19918;-81
2023/09/29 04:52:10;;;;;;;;;;;;;;;24.86;30.74;98986.50;5014897;28;20458;-81
2023/09/29 04:54:36;;;;;;;;;;;;;;;25.31;30.15;98988.63;5014991;28;19921;-80
2023/09/29 04:57:01;;;;;;;;;;;;;;;25.38;29.57;98987.59;5016242;28;19967;-78
2023/09/29 04:59:26;;;;;;;;;;;;;;;25.60;29.13;98987.34;5016170;28;19921;-79
2023/09/29 05:01:52;;;;;;;;;;;;;;;25.95;28.31;98984.34;5015424;28;20300;-79
2023/09/29 05:04:18;;;;;;;;;;;;;;;26.68;27.41;98980.59;5014186;28;19952;-80
2023/09/29 05:06:43;;;;;;;;;;;;;;;27.44;26.16;98986.81;5014134;28;19917;-80
2023/09/29 05:09:11;;;;;;;;;;;;;;;28.12;25.75;98991.25;4998337;28;19925;-79
2023/09/29 05:11:36;;;;;;;;;;;;;;;28.55;24.99;98989.47;4998338;28;20381;-79
2023/09/29 05:14:02;;;;;;;;;;;;;;;29.08;24.16;98981.66;4998628;28;19917;-77
2023/09/29 05:16:27;;;;;;;;;;;;;;;29.57;23.67;98985.81;5014889;28;20308;-80
2023/09/29 05:18:53;;;;;;;;;;;;;;;29.98;23.13;98990.44;5015370;28;19917;-79
2023/09/29 05:21:20;;;;;;;;;;;;;;;30.30;22.17;98997.03;5015954;28;20316;-78
2023/09/29 05:23:45;;;;;;;;;;;;;;;30.64;21.81;98996.31;5013949;28;19940;-79
2023/09/29 05:26:10;;;;;;;;;;;;;;;30.92;21.13;98995.44;5014886;28;19918;-80
2023/09/29 05:28:37;;;;;;;;;;;;;;;31.25;20.86;99007.34;4997677;28;19968;-80
2023/09/29 05:31:03;;;;;;;;;;;;;;;31.49;21.10;99002.56;4998088;28;19929;-79
2023/09/29 05:33:29;;;;;;;;;;;;;;;31.58;20.42;99004.88;5015527;28;20406;-79
2023/09/29 05:35:55;;;;;;;;;;;;;;;31.47;20.37;99002.00;4998048;28;19922;-82
2023/09/29 05:38:21;;;;;;;;;;;;;;;31.54;19.70;99009.94;5014299;28;19917;-79
2023/09/29 05:40:49;;;;;;;;;;;;;;;31.15;20.35;99007.16;5015616;28;19979;-78
2023/09/29 05:43:15;;;;;;;;;;;;;;;31.40;19.76;99006.75;5014710;28;19928;-81
2023/09/29 05:45:40;;;;;;;;;;;;;;;31.71;19.24;99007.22;4997833;28;19987;-79
2023/09/29 05:48:08;;;;;;;;;;;;;;;31.90;19.74;99019.34;5013220;28;19917;-81
2023/09/29 05:50:34;;;;;;;;;;;;;;;31.97;19.76;99016.44;5013645;28;19921;-79
2023/09/29 05:52:59;;;;;;;;;;;;;;;31.99;19.39;99008.09;5013206;28;20380;-79
2023/09/29 05:55:25;;;;;;;;;;;;;;;32.05;20.21;99018.72;5015229;28;19918;-81
2023/09/29 05:57:50;;;;;;;;;;;;;;;32.07;19.90;99026.56;5014275;28;19917;-78
2023/09/29 06:00:16;;;;;;;;;;;;;;;32.03;20.27;99028.94;4997549;28;19926;-79
2023/09/29 06:02:42;;;;;;;;;;;;;;;32.16;20.28;99035.88;4997996;28;20289;-82
2023/09/29 06:05:07;;;;;;;;;;;;;;;32.38;19.84;99037.78;4997455;28;19925;-77
2023/09/29 06:07:33;;;;;;;;;;;;;;;32.68;19.36;99039.19;4997309;28;19925;-79
2023/09/29 06:09:58;;;;;;;;;;;;;;;33.11;19.12;99037.41;5013966;28;19917;-81
2023/09/29 06:12:23;;;;;;;;;;;;;;;33.51;18.94;99041.53;4997391;28;20456;-79
2023/09/29 06:14:49;;;;;;;;;;;;;;;33.84;19.41;99043.13;5013531;28;19917;-79
2023/09/29 06:17:14;;;;;;;;;;;;;;;34.29;18.44;99043.63;5013618;28;19972;-79
2023/09/29 06:19:41;;;;;;;;;;;;;;;34.59;18.42;99050.22;5014901;28;20004;-81
2023/09/29 06:22:06;;;;;;;;;;;;;;;34.93;17.89;99047.03;4997987;28;20106;-79
2023/09/29 06:24:32;;;;;;;;;;;;;;;35.28;17.71;99053.56;5014139;28;19922;-80
2023/09/29 06:26:57;;;;;;;;;;;;;;;35.60;17.39;99055.19;5013984;28;19917;-79
2023/09/29 06:29:23;;;;;;;;;;;;;;;35.79;16.97;99053.53;4997085;28;19921;-79
2023/09/29 06:31:48;;;;;;;;;;;;;;;36.07;16.63;99053.97;5014999;28;19924;-80
2023/09/29 06:34:13;;;;;;;;;;;;;;;36.29;16.47;99059.06;5013844;28;19925;-78
2023/09/29 06:36:39;;;;;;;;;;;;;;;36.51;16.28;99055.94;5013854;28;20358;-81
2023/09/29 06:39:05;;;;;;;;;;;;;;;36.71;16.42;99060.47;4996576;28;19925;-83
2023/09/29 06:41:30;;;;;;;;;;;;;;;36.88;15.96;99057.38;4995956;28;20012;-79
2023/09/29 06:43:55;;;;;;;;;;;;;;;37.02;16.22;99065.72;5013290;28;19923;-79
2023/09/29 06:46:21;;;;;;;;;;;;;;;37.17;16.02;99062.06;5014606;28;19917;-79
2023/09/29 06:48:46;;;;;;;;;;;;;;;37.32;15.53;99065.78;4996673;28;19922;-78
2023/09/29 06:51:11;;;;;;;;;;;;;;;37.38;15.54;99059.19;5029655;28;19917;-79
2023/09/29 06:53:37;;;;;;;;;;;;;;;37.51;15.60;99069.38;5012391;28;19971;-78
2023/09/29 06:56:02;;;;;;;;;;;;;;;37.70;15.77;99057.81;5014308;28;20378;-79
2023/09/29 06:58:27;;;;;;;;;;;;;;;37.76;15.25;99062.09;4995426;28;19924;-80
2023/09/29 07:00:53;;;;;;;;;;;;;;;37.91;14.86;99070.09;5011847;28;19921;-79
2023/09/29 07:03:19;;;;;;;;;;;;;;;38.04;15.44;99082.22;5014004;28;19940;-82
2023/09/29 07:05:46;;;;;;;;;;;;;;;38.17;15.27;99078.81;5013314;28;19918;-82
2023/09/29 07:08:12;;;;;;;;;;;;;;;38.33;15.02;99079.44;5012879;28;19917;-78
2023/09/29 07:10:37;;;;;;;;;;;;;;;38.48;14.92;99083.88;5013865;28;20285;-77
2023/09/29 07:13:02;;;;;;;;;;;;;;;38.62;14.50;99074.97;4996425;28;19921;-78
2023/09/29 07:15:28;;;;;;;;;;;;;;;38.82;14.87;99079.34;4996150;28;19917;-78
2023/09/29 07:17:53;;;;;;;;;;;;;;;38.93;14.73;99093.63;5012446;28;19992;-79
2023/09/29 07:20:18;;;;;;;;;;;;;;;39.00;14.85;99091.31;5012517;28;20419;-79
2023/09/29 07:22:44;;;;;;;;;;;;;;;39.18;14.35;99092.44;5013764;28;19917;-78
2023/09/29 07:25:09;;;;;;;;;;;;;;;39.24;14.70;99089.31;5012599;28;20388;-77
2023/09/29 07:27:35;;;;;;;;;;;;;;;39.43;14.46;99102.94;5013669;28;19918;-78
2023/09/29 07:30:01;;;;;;;;;;;;;;;39.54;14.50;99100.06;5012530;28;19918;-78
2023/09/29 07:32:26;;;;;;;;;;;;;;;39.51;14.59;99108.81;5013564;28;19972;-79
2023/09/29 07:34:51;;;;;;;;;;;;;;;39.07;14.98;99111.69;5013464;28;19918;-78
2023/09/29 07:37:17;;;;;;;;;;;;;;;39.15;15.11;99112.94;5011273;28;19940;-81
2023/09/29 07:39:42;;;;;;;;;;;;;;;39.05;15.24;99118.56;4995765;28;19924;-79
2023/09/29 07:42:09;;;;;;;;;;;;;;;38.90;15.40;99111.41;4996082;28;19922;-80
2023/09/29 07:44:34;;;;;;;;;;;;;;;39.20;15.30;99109.31;5012296;28;19917;-80
2023/09/29 07:46:59;;;;;;;;;;;;;;;39.54;15.29;99100.88;4996513;28;19925;-83
2023/09/29 07:49:25;;;;;;;;;;;;;;;39.71;15.19;99113.13;4995941;28;20036;-79
2023/09/29 07:51:50;;;;;;;;;;;;;;;39.64;15.43;99113.53;5013258;28;19925;-78
2023/09/29 07:54:16;;;;;;;;;;;;;;;39.65;15.17;99120.63;5013331;28;20013;-79
2023/09/29 07:56:47;;;;;;;;;;;;;;;39.74;15.22;99120.72;5012563;28;19977;-80
2023/09/29 07:59:13;;;;;;;;;;;;;;;39.80;15.24;99122.25;5012977;28;19917;-79
2023/09/29 08:01:38;;;;;;;;;;;;;;;40.01;15.20;99119.97;5012233;28;20289;-78
2023/09/29 08:04:04;;;;;;;;;;;;;;;40.16;15.24;99127.06;5012936;28;19932;-79
2023/09/29 08:06:29;;;;;;;;;;;;;;;40.28;15.33;99132.00;5012434;28;19968;-80
2023/09/29 08:08:54;;;;;;;;;;;;;;;40.30;15.56;99127.06;5013515;28;20377;-79
2023/09/29 08:11:20;;;;;;;;;;;;;;;40.40;15.26;99128.75;5012846;28;19925;-78
2023/09/29 08:13:46;;;;;;;;;;;;;;;40.35;15.54;99132.41;4998502;28;19924;-78
2023/09/29 08:16:12;;;;;;;;;;;;;;;40.49;15.31;99143.38;5016212;28;19940;-79
2023/09/29 08:18:37;;;;;;;;;;;;;;;40.51;15.72;99133.72;5015430;28;20380;-80
2023/09/29 08:21:02;;;;;;;;;;;;;;;40.62;15.71;99130.78;5017442;28;20304;-77
2023/09/29 08:23:30;;;;;;;;;;;;;;;40.71;15.35;99134.41;4999442;28;20241;-79
2023/09/29 08:25:56;;;;;;;;;;;;;;;40.67;15.43;99145.13;4999832;28;19918;-78
2023/09/29 08:28:21;;;;;;;;;;;;;;;40.11;16.03;99135.38;5017119;28;19924;-79
2023/09/29 08:30:46;;;;;;;;;;;;;;;39.76;16.24;99140.38;5015954;28;19921;-78
2023/09/29 08:33:12;;;;;;;;;;;;;;;39.53;16.75;99128.47;5015655;28;19918;-79
2023/09/29 08:35:37;;;;;;;;;;;;;;;39.48;16.88;99134.81;4999504;28;19925;-78
2023/09/29 08:38:03;;;;;;;;;;;;;;;39.17;17.17;99129.03;5015771;28;19972;-78
2023/09/29 08:40:36;;;;;;;;;;;;;;;39.12;17.40;99140.03;4998879;28;19945;-79
2023/09/29 08:43:01;;;;;;;;;;;;;;;39.22;17.03;99128.94;5015618;28;19925;-78
2023/09/29 08:45:27;;;;;;;;;;;;;;;39.34;17.26;99123.84;5016080;28;19927;-79
2023/09/29 08:47:52;;;;;;;;;;;;;;;39.46;16.96;99126.09;4998939;28;20321;-78
2023/09/29 08:50:18;;;;;;;;;;;;;;;39.41;17.12;99121.53;5015441;28;19917;-80
2023/09/29 08:52:46;;;;;;;;;;;;;;;39.52;17.09;99107.69;5015077;28;19917;-84
2023/09/29 08:55:14;;;;;;;;;;;;;;;39.67;17.29;99109.38;4997627;28;20300;-79
2023/09/29 08:57:43;;;;;;;;;;;;;;;39.67;17.30;99115.66;5015289;28;19917;-78
2023/09/29 09:00:12;;;;;;;;;;;;;;;39.75;17.21;99111.41;5015278;28;19925;-79
2023/09/29 09:02:38;;;;;;;;;;;;;;;39.91;17.10;99114.66;4999457;28;19918;-77
2023/09/29 09:05:03;;;;;;;;;;;;;;;40.01;17.03;99116.41;5015095;28;20313;-80
2023/09/29 09:07:29;;;;;;;;;;;;;;;40.13;17.29;99114.78;4998363;28;20312;-77
2023/09/29 09:09:55;;;;;;;;;;;;;;;40.25;16.75;99114.28;4999163;28;19925;-78
2023/09/29 09:12:43;;;;;;;;;;;;;;;40.29;16.86;99115.28;4998588;28;19968;-78
2023/09/29 09:15:09;;;;;;;;;;;;;;;40.26;16.67;99106.91;4999066;28;20011;-80
2023/09/29 09:17:34;;;;;;;;;;;;;;;40.17;16.74;99112.28;4997974;28;19921;-79
2023/09/29 09:20:00;;;;;;;;;;;;;;;40.04;17.02;99116.63;4998321;28;20372;-78
2023/09/29 09:22:27;;;;;;;;;;;;;;;40.04;17.00;99111.16;5013993;28;20419;-80
2023/09/29 09:24:59;;;;;;;;;;;;;;;40.03;16.73;99111.44;5014223;28;20015;-78
2023/09/29 09:27:25;;;;;;;;;;;;;;;39.92;17.09;99105.38;4999015;28;19996;-78
2023/09/29 09:29:50;;;;;;;;;;;;;;;39.78;17.16;99106.16;5015079;28;20380;-77
2023/09/29 09:32:24;;;;;;;;;;;;;;;39.61;17.27;99101.25;5015398;28;19925;-79
2023/09/29 09:34:50;;;;;;;;;;;;;;;39.56;17.35;99108.75;5014676;28;19956;-78
2023/09/29 09:37:23;;;;;;;;;;;;;;;39.24;17.59;99097.50;5014533;28;20450;-83
2023/09/29 09:39:48;;;;;;;;;;;;;;;39.06;17.75;99111.97;4998780;28;19917;-80
2023/09/29 09:42:13;;;;;;;;;;;;;;;38.72;17.91;99102.13;4998444;28;20452;-80
2023/09/29 09:44:40;;;;;;;;;;;;;;;38.44;18.55;99101.09;5014103;28;19924;-78
2023/09/29 09:47:10;;;;;;;;;;;;;;;38.31;18.74;99103.44;4997845;28;19917;-79
2023/09/29 09:49:41;;;;;;;;;;;;;;;38.16;18.82;99095.44;4999024;28;19975;-77
2023/09/29 09:52:15;;;;;;;;;;;;;;;38.08;18.69;99101.50;4997149;28;19928;-82
2023/09/29 09:54:44;;;;;;;;;;;;;;;37.94;18.83;99098.66;5013891;28;19918;-78
2023/09/29 09:57:10;;;;;;;;;;;;;;;37.82;19.02;99093.63;5014287;28;20433;-78
2023/09/29 09:59:36;;;;;;;;;;;;;;;37.81;19.11;99100.16;4997696;28;19940;-79
2023/09/29 10:02:06;;;;;;;;;;;;;;;37.91;18.93;99091.91;4995953;28;20324;-80
2023/09/29 10:04:32;;;;;;;;;;;;;;;37.88;19.34;99097.94;4997904;28;19926;-79
2023/09/29 10:06:59;;;;;;;;;;;;;;;37.88;19.13;99094.41;5013777;28;19928;-80
2023/09/29 10:09:24;;;;;;;;;;;;;;;37.83;19.06;99095.25;4998006;28;19976;-78
2023/09/29 10:11:59;;;;;;;;;;;;;;;37.86;19.04;99083.78;5014211;28;19918;-79
2023/09/29 10:14:24;;;;;;;;;;;;;;;37.77;19.41;99083.59;4997580;28;19917;-78
2023/09/29 10:17:00;;;;;;;;;;;;;;;37.69;19.55;99086.16;5013645;28;20441;-79
2023/09/29 10:19:33;;;;;;;;;;;;;;;37.64;19.09;99089.72;5014106;28;20017;-77
2023/09/29 10:22:00;;;;;;;;;;;;;;;37.51;19.47;99074.84;4997447;28;20012;-79
2023/09/29 10:24:26;;;;;;;;;;;;;;;37.43;19.22;99084.47;5013602;28;19979;-78
2023/09/29 10:26:51;;;;;;;;;;;;;;;37.28;19.18;99090.84;5013707;28;19921;-78
2023/09/29 10:29:27;;;;;;;;;;;;;;;37.27;19.42;99074.78;4997456;28;20369;-78
2023/09/29 10:31:53;;;;;;;;;;;;;;;37.15;19.65;99080.59;4997134;28;19917;-79
2023/09/29 10:34:21;;;;;;;;;;;;;;;37.12;19.90;99084.69;4996501;28;20047;-79
2023/09/29 10:36:55;;;;;;;;;;;;;;;37.03;19.67;99078.22;5013372;28;19917;-78
2023/09/29 10:39:26;;;;;;;;;;;;;;;36.84;19.92;99072.63;4997025;28;19925;-79
2023/09/29 10:41:58;;;;;;;;;;;;;;;36.69;19.84;99067.25;5013029;28;19921;-78
2023/09/29 10:44:26;;;;;;;;;;;;;;;36.54;19.99;99068.97;5014857;28;19917;-77
2023/09/29 10:46:52;;;;;;;;;;;;;;;36.35;20.19;99078.88;4996593;28;19917;-81
2023/09/29 10:49:17;;;;;;;;;;;;;;;36.16;20.41;99074.03;5013172;28;19925;-77
2023/09/29 10:51:42;;;;;;;;;;;;;;;36.03;20.62;99066.47;5013909;28;19917;-78
2023/09/29 10:54:08;;;;;;;;;;;;;;;35.94;20.60;99065.44;5012560;28;19924;-78
2023/09/29 10:56:33;;;;;;;;;;;;;;;35.81;20.72;99069.53;5012814;28;19917;-78
2023/09/29 10:59:00;;;;;;;;;;;;;;;35.69;20.76;99069.78;4996608;28;19926;-76
2023/09/29 11:01:33;;;;;;;;;;;;;;;35.47;20.63;99059.25;5014209;28;19964;-78
2023/09/29 11:03:59;;;;;;;;;;;;;;;35.23;20.91;99058.97;4997577;28;20372;-77
2023/09/29 11:06:27;;;;;;;;;;;;;;;35.09;21.21;99055.97;4996336;28;20155;-79
2023/09/29 11:08:56;;;;;;;;;;;;;;;34.94;21.69;99049.47;5013554;28;19918;-78
2023/09/29 11:11:24;;;;;;;;;;;;;;;34.91;21.57;99041.06;5012539;28;19924;-78
2023/09/29 11:13:56;;;;;;;;;;;;;;;34.77;21.99;99044.28;4996594;28;19918;-78
2023/09/29 11:16:24;;;;;;;;;;;;;;;34.70;22.04;99042.91;4996104;28;19976;-80
2023/09/29 11:18:50;;;;;;;;;;;;;;;34.54;21.77;99045.59;4996626;28;20418;-79
2023/09/29 11:21:17;;;;;;;;;;;;;;;34.28;21.64;99041.16;5012196;28;20025;-77
2023/09/29 11:23:48;;;;;;;;;;;;;;;34.23;22.00;99029.22;5013269;28;19918;-82
2023/09/29 11:26:14;;;;;;;;;;;;;;;34.08;22.29;99035.38;4996317;28;20008;-78
2023/09/29 11:28:43;;;;;;;;;;;;;;;33.88;22.73;99029.88;4996234;28;20362;-78
2023/09/29 11:31:09;;;;;;;;;;;;;;;33.70;22.67;99026.53;4996667;28;19917;-77
2023/09/29 11:33:35;;;;;;;;;;;;;;;33.56;22.60;99029.91;5012505;28;20032;-78
2023/09/29 11:36:09;;;;;;;;;;;;;;;33.46;22.65;99027.97;5013149;28;20028;-78
2023/09/29 11:38:35;;;;;;;;;;;;;;;33.35;22.93;99027.06;5013909;28;19917;-80
2023/09/29 11:41:00;;;;;;;;;;;;;;;33.25;23.20;99019.72;5012291;28;19925;-80
2023/09/29 11:43:26;;;;;;;;;;;;;;;33.16;22.95;99019.34;4996108;28;20372;-81
2023/09/29 11:45:51;;;;;;;;;;;;;;;33.00;23.00;99012.19;5012486;28;19928;-79
2023/09/29 11:48:16;;;;;;;;;;;;;;;32.87;22.96;99016.13;5011966;28;19925;-78
2023/09/29 11:50:42;;;;;;;;;;;;;;;32.78;23.20;99015.78;5013484;28;19917;-79
2023/09/29 11:53:07;;;;;;;;;;;;;;;32.69;23.25;99014.63;4995413;28;20407;-79
2023/09/29 11:55:34;;;;;;;;;;;;;;;32.62;23.42;99006.69;5013447;28;19917;-79
2023/09/29 11:58:00;;;;;;;;;;;;;;;32.56;23.56;99005.00;4995968;28;19917;-79
2023/09/29 12:00:25;;;;;;;;;;;;;;;32.47;23.63;99004.63;5012192;28;19940;-78
2023/09/29 12:02:51;;;;;;;;;;;;;;;32.46;23.57;98999.50;5013215;28;19917;-79
2023/09/29 12:05:16;;;;;;;;;;;;;;;32.44;23.75;99015.16;4995863;28;19921;-76
2023/09/29 12:07:41;;;;;;;;;;;;;;;32.40;23.60;99005.91;5013046;28;20016;-78
2023/09/29 12:10:07;;;;;;;;;;;;;;;32.38;23.53;99000.75;5013742;28;20387;-80
2023/09/29 12:12:32;;;;;;;;;;;;;;;32.29;23.36;98999.56;5012240;28;19917;-80
2023/09/29 12:14:58;;;;;;;;;;;;;;;32.25;23.52;99001.16;5012441;28;19928;-81
2023/09/29 12:17:24;;;;;;;;;;;;;;;32.22;23.52;98996.28;5011896;28;20403;-78
2023/09/29 12:19:49;;;;;;;;;;;;;;;32.19;23.83;98996.78;5012070;28;19925;-80
2023/09/29 12:22:14;;;;;;;;;;;;;;;32.12;24.00;98996.97;4997505;28;19924;-80
2023/09/29 12:24:40;;;;;;;;;;;;;;;32.05;23.69;98996.31;4999282;28;19918;-75
2023/09/29 12:27:08;;;;;;;;;;;;;;;31.95;24.32;98994.31;5017144;28;19940;-73
2023/09/29 12:29:34;;;;;;;;;;;;;;;31.86;24.45;98983.09;5014470;28;20373;-73
2023/09/29 12:31:59;;;;;;;;;;;;;;;31.71;24.29;98991.84;5016077;28;20008;-73
2023/09/29 12:34:25;;;;;;;;;;;;;;;31.66;24.80;98990.94;5012977;28;19923;-72
2023/09/29 12:36:51;;;;;;;;;;;;;;;31.63;24.97;98994.13;4997049;28;20372;-73
2023/09/29 12:39:16;;;;;;;;;;;;;;;31.61;24.79;98994.38;5013795;28;19918;-74
2023/09/29 12:41:42;;;;;;;;;;;;;;;31.58;24.33;98992.22;5012634;28;19922;-73
2023/09/29 12:44:07;;;;;;;;;;;;;;;31.48;24.67;98987.44;5018682;28;20316;-73